Terminal Aerodrome Forecast
Issued by NWS

Home | Current Version | Previous Version | Text Only | Print | Product List | Glossary On
Versions: 1 2 3 4 5 6 7 8 9 10 11 12 13 14 15 16 17 18 19 20 21 22 23 24 25 26 27 28 29 30 31 32 33 34 35 36 37 38 39 40 41 42 43 44 45 46 47 48 49 50
000
FTUS44 KFWD 181528 AAD
TAFDAL
TAF AMD
KDAL 181528Z 1815/1912 01007KT P6SM VCTS SCT015 BKN025CB
      TEMPO 1815/1816 4SM RA BKN010
     FM181600 34015KT P6SM -SHRA VCTS BKN018CB
     FM181800 34022G32KT P6SM BKN050
     FM190200 34008KT P6SM FEW150=

USA.gov is the U.S. government's official web portal to all federal, state and local government web resources and services.